Time;durP1;ratioP1;P1;durP2;ratioP2;P2;SDS_P1;SDS_P2;PMS_P1;PMS_P2;Temp;Humidity;BMP_temperature;BMP_pressure;BME280_temperature;BME280_humidity;BME280_pressure;Samples;Min_cycle;Max_cycle;Signal;HPM_P1;HPM_P2
2022/04/30 00:02:17;;;;;;;7.07;2.77;;;6.90;99.90;;;;;;5055276;28;20500;-75
2022/04/30 00:04:44;;;;;;;3.53;2.43;;;6.80;99.90;;;;;;5054092;28;20100;-75
2022/04/30 00:07:13;;;;;;;6.33;3.43;;;6.80;99.90;;;;;;5051947;28;20381;-75
2022/04/30 00:09:39;;;;;;;6.43;2.67;;;6.90;99.90;;;;;;5051944;28;20481;-75
2022/04/30 00:12:05;;;;;;;4.40;2.70;;;6.90;99.90;;;;;;5050834;28;20025;-75
2022/04/30 00:14:31;;;;;;;5.43;3.10;;;6.70;99.90;;;;;;5050834;28;20032;-75
2022/04/30 00:16:57;;;;;;;3.93;2.27;;;;;;;;;;5034284;28;20051;-75
2022/04/30 00:19:23;;;;;;;4.17;2.83;;;;;;;;;;5051316;28;20385;-75
2022/04/30 00:21:50;;;;;;;5.93;3.30;;;7.10;99.90;;;;;;5051201;28;20033;-75
2022/04/30 00:24:16;;;;;;;7.37;3.03;;;;;;;;;;5050476;28;20033;-75
2022/04/30 00:26:43;;;;;;;6.00;3.33;;;6.40;99.90;;;;;;5050395;28;20481;-75
2022/04/30 00:29:09;;;;;;;5.37;3.07;;;;;;;;;;5050645;28;20702;-75
2022/04/30 00:31:35;;;;;;;5.27;3.67;;;6.60;99.90;;;;;;5048882;28;20036;-75
2022/04/30 00:34:02;;;;;;;6.63;3.77;;;6.50;99.90;;;;;;5049598;28;20024;-75
2022/04/30 00:36:28;;;;;;;4.50;2.70;;;;;;;;;;5050748;28;20032;-75
2022/04/30 00:38:54;;;;;;;4.50;3.57;;;6.20;99.90;;;;;;5050930;28;20060;-75
2022/04/30 00:41:21;;;;;;;6.90;3.83;;;6.40;99.90;;;;;;5050413;28;20077;-75
2022/04/30 00:43:48;;;;;;;5.77;3.70;;;6.30;99.90;;;;;;5050236;28;20036;-75
2022/04/30 00:46:14;;;;;;;3.90;3.20;;;6.30;99.90;;;;;;5050483;28;20072;-76
2022/04/30 00:48:41;;;;;;;5.90;3.63;;;6.30;99.90;;;;;;5050981;28;20080;-75
2022/04/30 00:51:10;;;;;;;11.83;4.40;;;6.40;99.90;;;;;;5050680;28;20033;-76
2022/04/30 00:53:38;;;;;;;9.97;4.00;;;6.20;99.90;;;;;;5066376;28;20473;-75
2022/04/30 00:56:05;;;;;;;6.27;4.47;;;6.20;99.90;;;;;;5049229;28;20620;-75
2022/04/30 00:58:34;;;;;;;8.33;4.17;;;5.80;99.90;;;;;;5051359;28;20029;-76
2022/04/30 01:01:01;;;;;;;5.93;4.23;;;5.90;99.90;;;;;;5055245;28;20029;-76
2022/04/30 01:03:27;;;;;;;7.93;4.17;;;6.20;99.90;;;;;;5050163;28;20037;-75
2022/04/30 01:05:54;;;;;;;9.67;4.57;;;6.00;99.90;;;;;;5050610;28;20021;-76
2022/04/30 01:08:20;;;;;;;5.60;3.73;;;6.10;99.90;;;;;;5050570;28;20067;-75
2022/04/30 01:10:46;;;;;;;5.17;3.90;;;6.00;99.90;;;;;;5050262;28;20041;-75
2022/04/30 01:13:13;;;;;;;12.80;4.97;;;6.00;99.90;;;;;;5050110;28;20039;-75
2022/04/30 01:15:39;;;;;;;8.47;4.27;;;6.00;99.90;;;;;;5049823;28;20025;-76
2022/04/30 01:18:10;;;;;;;7.90;4.47;;;5.90;99.90;;;;;;5049899;28;20100;-76
2022/04/30 01:20:39;;;;;;;8.10;4.57;;;6.00;99.90;;;;;;5050208;28;20485;-75
2022/04/30 01:23:06;;;;;;;5.57;3.80;;;5.90;99.90;;;;;;5049687;28;20033;-75
2022/04/30 01:25:32;;;;;;;7.43;4.57;;;5.80;99.90;;;;;;5050158;28;20021;-75
2022/04/30 01:28:01;;;;;;;7.87;5.17;;;5.80;99.90;;;;;;5050080;28;20078;-75
2022/04/30 01:30:27;;;;;;;9.43;5.07;;;5.80;99.90;;;;;;5049617;28;20035;-75
2022/04/30 01:38:41;;;;;;;8.73;4.73;;;6.00;99.90;;;;;;5049666;28;20494;-75
2022/04/30 01:41:07;;;;;;;6.93;4.50;;;5.60;99.90;;;;;;5056159;28;20060;-75
2022/04/30 01:43:33;;;;;;;7.90;4.30;;;5.70;99.90;;;;;;5063659;28;20060;-75
2022/04/30 01:46:00;;;;;;;7.33;4.70;;;5.70;99.90;;;;;;5055840;28;20032;-75
2022/04/30 01:48:26;;;;;;;10.03;4.37;;;;;;;;;;5054919;28;20580;-75
2022/04/30 01:50:52;;;;;;;11.60;5.00;;;5.70;99.90;;;;;;5067278;28;20136;-75
2022/04/30 01:53:19;;;;;;;11.73;4.70;;;;;;;;;;5067569;28;20470;-75
2022/04/30 01:55:44;;;;;;;8.17;4.70;;;5.50;99.90;;;;;;5061493;28;20728;-75
2022/04/30 01:58:11;;;;;;;10.37;6.20;;;;;;;;;;5046799;28;20124;-75
2022/04/30 02:00:36;;;;;;;8.37;5.50;;;5.40;99.90;;;;;;5053233;28;20046;-75
2022/04/30 02:03:08;;;;;;;9.47;5.43;;;5.60;99.90;;;;;;5063113;28;20057;-75
2022/04/30 02:05:35;;;;;;;10.67;5.43;;;5.50;99.90;;;;;;5057329;28;20503;-75
2022/04/30 02:08:06;;;;;;;7.07;5.93;;;5.50;99.90;;;;;;5054755;28;20068;-75
2022/04/30 02:10:34;;;;;;;4.90;4.40;;;5.50;99.90;;;;;;5043207;28;20048;-75
2022/04/30 02:13:00;;;;;;;7.63;5.60;;;5.30;99.90;;;;;;5049479;28;20024;-75
2022/04/30 02:15:28;;;;;;;5.73;4.70;;;5.40;99.90;;;;;;5052268;28;20052;-74
2022/04/30 02:17:55;;;;;;;8.43;4.50;;;5.30;99.90;;;;;;5052073;28;20115;-75
2022/04/30 02:20:22;;;;;;;11.90;6.13;;;5.20;99.90;;;;;;5051543;28;20489;-75
2022/04/30 02:22:54;;;;;;;8.40;5.67;;;5.20;99.90;;;;;;5049348;28;20036;-74
2022/04/30 02:25:21;;;;;;;10.80;6.47;;;5.20;99.90;;;;;;5050319;28;20111;-75
2022/04/30 02:27:49;;;;;;;6.80;4.80;;;5.20;99.90;;;;;;5052132;28;20033;-75
2022/04/30 02:30:19;;;;;;;8.93;5.23;;;5.20;99.90;;;;;;5053457;28;20040;-75
2022/04/30 02:32:49;;;;;;;9.23;5.50;;;5.10;99.90;;;;;;5051269;28;20545;-75
2022/04/30 02:35:24;;;;;;;8.70;5.97;;;5.00;99.90;;;;;;5049412;28;20116;-75
2022/04/30 02:37:52;;;;;;;9.57;5.60;;;5.00;99.90;;;;;;5049260;28;20482;-75
2022/04/30 02:40:19;;;;;;;8.97;5.93;;;5.10;99.90;;;;;;5048833;28;20061;-75
2022/04/30 02:42:45;;;;;;;9.67;4.83;;;5.10;99.90;;;;;;5048898;28;20041;-75
2022/04/30 02:45:12;;;;;;;10.10;5.83;;;5.00;99.90;;;;;;5048551;28;20032;-75
2022/04/30 02:47:39;;;;;;;10.67;6.50;;;5.40;99.90;;;;;;5050137;28;20057;-75
2022/04/30 02:50:09;;;;;;;11.60;6.60;;;4.90;99.90;;;;;;5052476;28;20024;-75
2022/04/30 02:52:36;;;;;;;10.63;6.43;;;4.80;99.90;;;;;;5053526;28;20025;-75
2022/04/30 02:55:03;;;;;;;9.13;6.53;;;5.30;99.90;;;;;;5052458;28;20032;-75
2022/04/30 03:00:34;;;;;;;8.83;5.70;;;4.90;99.90;;;;;;5053091;28;20048;-75
2022/04/30 03:03:00;;;;;;;9.97;5.87;;;4.90;99.90;;;;;;5052472;28;20040;-75
2022/04/30 03:05:27;;;;;;;12.97;7.07;;;;;;;;;;5052403;28;20481;-75
2022/04/30 03:07:53;;;;;;;11.27;6.70;;;5.00;99.90;;;;;;5052612;28;20033;-75
2022/04/30 03:10:19;;;;;;;11.33;6.27;;;4.90;99.90;;;;;;5050849;28;20535;-75
2022/04/30 03:12:45;;;;;;;8.17;5.80;;;4.90;99.90;;;;;;5052908;28;20387;-75
2022/04/30 03:15:11;;;;;;;10.73;6.57;;;;;;;;;;5052174;28;20029;-75
2022/04/30 03:23:06;;;;;;;11.98;6.68;;;;;;;;;;5052302;28;20049;-75
2022/04/30 03:25:31;;;;;;;11.10;6.93;;;5.00;99.90;;;;;;5051976;28;20029;-75
2022/04/30 03:27:57;;;;;;;8.37;6.53;;;4.70;99.90;;;;;;5052347;28;20040;-75
2022/04/30 03:30:25;;;;;;;11.07;6.50;;;4.70;99.90;;;;;;5052398;28;20033;-75
2022/04/30 03:32:50;;;;;;;13.17;5.70;;;4.70;99.90;;;;;;5052353;28;20113;-75
2022/04/30 03:35:16;;;;;;;11.47;6.63;;;4.70;99.90;;;;;;5052171;28;20108;-75
2022/04/30 03:37:41;;;;;;;15.87;7.67;;;4.70;99.90;;;;;;5052614;28;20036;-75
2022/04/30 03:40:08;;;;;;;10.47;6.53;;;;;;;;;;5051347;28;20668;-75
2022/04/30 03:42:34;;;;;;;10.83;7.33;;;;;;;;;;5052407;28;20108;-75
2022/04/30 03:45:02;;;;;;;11.50;6.80;;;4.40;99.90;;;;;;5050514;28;20103;-75
2022/04/30 03:47:28;;;;;;;10.80;6.83;;;;;;;;;;5050911;28;20024;-75
2022/04/30 03:49:53;;;;;;;11.30;7.27;;;5.00;99.90;;;;;;5051981;28;20079;-75
2022/04/30 03:52:19;;;;;;;10.33;5.67;;;;;;;;;;5051730;28;20083;-75
2022/04/30 03:54:45;;;;;;;12.93;7.40;;;4.60;99.90;;;;;;5051486;28;20029;-75
2022/04/30 03:57:10;;;;;;;12.20;7.40;;;5.00;99.90;;;;;;5051693;28;20040;-75
2022/04/30 03:59:36;;;;;;;12.73;7.20;;;;;;;;;;5050801;28;20109;-75
2022/04/30 04:02:03;;;;;;;13.13;7.33;;;4.50;99.90;;;;;;5051350;28;20392;-75
2022/04/30 04:04:29;;;;;;;13.20;7.67;;;4.70;99.90;;;;;;5052078;28;20430;-75
2022/04/30 04:06:55;;;;;;;10.17;7.00;;;4.70;99.90;;;;;;5051762;28;20100;-75
2022/04/30 04:09:21;;;;;;;12.60;7.20;;;4.70;99.90;;;;;;5066843;28;20029;-75
2022/04/30 04:11:47;;;;;;;10.83;7.07;;;4.60;99.90;;;;;;5054249;28;20355;-75
2022/04/30 04:19:40;;;;;;;12.60;7.28;;;4.50;99.90;;;;;;5051584;28;20040;-75
2022/04/30 04:22:06;;;;;;;9.70;6.80;;;4.60;99.90;;;;;;5050996;28;20025;-75
2022/04/30 04:27:17;;;;;;;11.15;7.13;;;4.70;99.90;;;;;;5050827;28;20028;-75
2022/04/30 04:29:44;;;;;;;8.80;6.07;;;;;;;;;;5051748;28;20029;-75
2022/04/30 04:32:09;;;;;;;13.67;7.03;;;4.50;99.90;;;;;;5050907;28;20377;-75
2022/04/30 04:34:35;;;;;;;11.17;7.40;;;;;;;;;;5051592;28;20025;-75
2022/04/30 04:37:01;;;;;;;12.27;7.27;;;4.60;99.90;;;;;;5050717;28;20684;-75
2022/04/30 04:39:27;;;;;;;11.43;7.33;;;;;;;;;;5051146;28;20791;-75
2022/04/30 04:41:52;;;;;;;10.87;6.77;;;4.60;99.90;;;;;;5051456;28;20049;-74
2022/04/30 04:44:18;;;;;;;9.70;6.90;;;4.60;99.90;;;;;;5052924;28;20101;-74
2022/04/30 04:46:43;;;;;;;7.97;6.20;;;4.50;99.90;;;;;;5052307;28;20021;-75
2022/04/30 04:49:10;;;;;;;9.90;5.93;;;4.60;99.90;;;;;;5051028;28;20393;-75
2022/04/30 04:51:35;;;;;;;15.53;8.03;;;4.50;99.90;;;;;;5049107;28;20025;-75
2022/04/30 04:54:02;;;;;;;9.20;6.20;;;4.70;99.90;;;;;;5051903;28;20074;-75
2022/04/30 04:56:28;;;;;;;10.33;7.13;;;;;;;;;;5053774;28;20049;-75
2022/04/30 04:58:54;;;;;;;11.57;6.60;;;;;;;;;;5055217;28;20036;-75
2022/04/30 05:01:20;;;;;;;10.83;6.67;;;;;;;;;;5052058;28;20048;-75
2022/04/30 05:03:45;;;;;;;11.67;7.83;;;4.90;99.90;;;;;;5050908;28;20405;-75
2022/04/30 05:06:11;;;;;;;14.90;6.77;;;5.00;99.90;;;;;;5050016;28;20462;-75
2022/04/30 05:08:37;;;;;;;12.23;7.33;;;;;;;;;;5051064;28;20487;-75
2022/04/30 05:11:02;;;;;;;8.93;6.10;;;5.10;99.90;;;;;;5050124;28;20142;-75
2022/04/30 05:13:28;;;;;;;14.70;8.60;;;5.10;99.90;;;;;;5050561;28;20095;-76
2022/04/30 05:15:54;;;;;;;9.83;6.80;;;;;;;;;;5050467;28;20025;-76
2022/04/30 05:18:20;;;;;;;12.10;7.57;;;5.10;99.90;;;;;;5050104;28;20422;-75
2022/04/30 05:20:46;;;;;;;9.27;6.77;;;5.30;99.90;;;;;;5048936;28;20495;-75
2022/04/30 05:23:12;;;;;;;11.73;7.00;;;;;;;;;;5050335;28;20040;-75
2022/04/30 05:25:40;;;;;;;11.43;6.33;;;5.50;99.90;;;;;;5050074;28;20025;-75
2022/04/30 05:28:07;;;;;;;9.27;7.07;;;5.50;99.90;;;;;;5050374;28;20535;-75
2022/04/30 05:30:32;;;;;;;13.83;8.30;;;5.90;99.90;;;;;;5049875;28;20024;-75
2022/04/30 05:32:58;;;;;;;10.50;7.40;;;5.90;99.90;;;;;;5050360;28;20071;-75
2022/04/30 05:35:24;;;;;;;10.53;7.33;;;;;;;;;;5046138;28;20037;-75
2022/04/30 05:37:49;;;;;;;12.50;7.40;;;6.10;99.90;;;;;;5050263;28;20469;-75
2022/04/30 05:40:15;;;;;;;9.60;6.20;;;6.00;99.90;;;;;;5049152;28;20355;-76
2022/04/30 05:42:41;;;;;;;9.20;6.43;;;;;;;;;;5049931;28;20037;-75
2022/04/30 05:45:07;;;;;;;13.40;8.37;;;6.40;99.90;;;;;;5049514;28;20064;-75
2022/04/30 05:47:32;;;;;;;13.33;7.57;;;6.30;99.90;;;;;;5049155;28;20029;-75
2022/04/30 05:49:58;;;;;;;12.00;6.43;;;6.50;99.90;;;;;;5049223;28;20029;-75
2022/04/30 05:52:24;;;;;;;12.33;6.93;;;;;;;;;;5049654;28;20048;-76
2022/04/30 05:54:49;;;;;;;8.50;6.70;;;;;;;;;;5050030;28;20033;-76
2022/04/30 05:57:15;;;;;;;9.97;6.83;;;;;;;;;;5049415;28;20180;-75
2022/04/30 05:59:41;;;;;;;9.23;6.30;;;6.80;99.90;;;;;;5050110;28;20040;-76
2022/04/30 06:02:07;;;;;;;8.43;6.60;;;6.80;99.90;;;;;;5049860;28;20048;-76
2022/04/30 06:04:32;;;;;;;8.90;5.87;;;7.00;99.90;;;;;;5048924;28;20044;-76
2022/04/30 06:06:58;;;;;;;10.70;7.70;;;7.30;99.90;;;;;;5049802;28;20190;-76
2022/04/30 06:09:24;;;;;;;10.83;7.13;;;;;;;;;;5049514;28;20025;-76
2022/04/30 06:11:50;;;;;;;7.10;5.57;;;7.30;99.90;;;;;;5046118;28;20143;-76
2022/04/30 06:14:16;;;;;;;7.63;5.40;;;8.00;99.90;;;;;;5049268;28;20108;-76
2022/04/30 06:16:41;;;;;;;9.60;5.53;;;7.60;99.90;;;;;;5049874;28;20028;-76
2022/04/30 06:19:07;;;;;;;11.37;6.17;;;;;;;;;;5048177;28;20029;-76
2022/04/30 06:21:32;;;;;;;8.67;5.77;;;7.80;99.90;;;;;;5049374;28;20029;-76
2022/04/30 06:23:58;;;;;;;8.40;5.47;;;7.90;99.90;;;;;;5052840;28;20049;-76
2022/04/30 06:26:24;;;;;;;8.70;5.87;;;7.90;99.90;;;;;;5052060;28;20040;-76
2022/04/30 06:28:49;;;;;;;10.90;6.67;;;8.00;99.90;;;;;;5053800;28;20083;-76
2022/04/30 06:31:15;;;;;;;7.17;5.30;;;7.90;99.90;;;;;;5052917;28;20017;-76
2022/04/30 06:33:41;;;;;;;6.87;4.67;;;;;;;;;;5052736;28;20079;-76
2022/04/30 06:36:07;;;;;;;6.47;4.47;;;8.20;99.90;;;;;;5052991;28;20025;-76
2022/04/30 06:38:33;;;;;;;8.37;3.97;;;8.30;99.90;;;;;;5046787;28;20032;-75
2022/04/30 06:40:59;;;;;;;5.00;3.93;;;8.40;99.90;;;;;;5052841;28;20396;-76
2022/04/30 06:43:25;;;;;;;9.57;5.17;;;8.40;99.90;;;;;;5052805;28;20043;-75
2022/04/30 06:45:50;;;;;;;9.57;4.93;;;8.40;99.90;;;;;;5053092;28;20021;-75
2022/04/30 06:48:15;;;;;;;7.90;4.30;;;8.50;99.90;;;;;;5051194;28;20405;-76
2022/04/30 06:50:41;;;;;;;6.50;4.47;;;8.60;99.90;;;;;;5053219;28;20025;-76
2022/04/30 06:58:44;;;;;;;7.07;4.65;;;;;;;;;;5053019;28;20094;-76
2022/04/30 07:04:01;;;;;;;8.27;4.43;;;9.20;99.90;;;;;;5065933;28;20126;-71
2022/04/30 07:06:27;;;;;;;6.33;4.50;;;9.20;99.90;;;;;;5052275;28;20043;-69
2022/04/30 07:08:53;;;;;;;5.23;3.67;;;;;;;;;;5051660;28;20036;-70
2022/04/30 07:11:19;;;;;;;5.80;3.83;;;9.50;99.90;;;;;;5043559;28;20111;-70
2022/04/30 07:13:45;;;;;;;6.23;3.77;;;;;;;;;;5049507;28;20029;-70
2022/04/30 07:16:10;;;;;;;5.63;3.97;;;9.90;99.90;;;;;;5051173;28;20025;-70
2022/04/30 07:18:36;;;;;;;2.87;2.57;;;10.00;99.90;;;;;;5049273;28;20033;-70
2022/04/30 07:21:01;;;;;;;4.63;3.00;;;;;;;;;;5049915;28;20398;-70
2022/04/30 07:23:27;;;;;;;3.57;3.07;;;10.20;99.90;;;;;;5034438;28;20084;-69
2022/04/30 07:25:52;;;;;;;8.83;3.83;;;10.40;99.90;;;;;;5043894;28;20071;-70
2022/04/30 07:28:18;;;;;;;7.13;4.23;;;10.60;99.90;;;;;;5039632;28;20036;-70
2022/04/30 07:30:43;;;;;;;8.43;4.40;;;10.60;99.90;;;;;;5043472;28;20025;-70
2022/04/30 07:33:09;;;;;;;6.13;4.63;;;;;;;;;;5038072;28;20036;-70
2022/04/30 07:35:35;;;;;;;6.57;4.33;;;;;;;;;;5035118;28;20040;-70
2022/04/30 07:38:01;;;;;;;6.50;3.87;;;;;;;;;;5032514;28;20481;-70
2022/04/30 07:40:27;;;;;;;6.13;4.60;;;11.00;99.90;;;;;;5048033;28;20057;-69
2022/04/30 07:42:52;;;;;;;8.57;5.00;;;10.90;99.90;;;;;;5047731;28;21209;-69
2022/04/30 07:45:18;;;;;;;6.07;3.97;;;10.90;99.90;;;;;;5034436;28;20449;-70
2022/04/30 07:47:43;;;;;;;7.47;4.30;;;10.90;99.90;;;;;;5040162;28;20021;-71
2022/04/30 07:50:10;;;;;;;10.40;5.23;;;;;;;;;;5039363;28;20040;-70
2022/04/30 07:52:35;;;;;;;7.00;4.53;;;11.00;99.90;;;;;;5035303;28;20022;-69
2022/04/30 07:55:02;;;;;;;6.82;4.47;;;11.20;99.90;;;;;;5042307;28;20028;-71
2022/04/30 07:57:28;;;;;;;6.67;4.43;;;11.10;99.90;;;;;;5033884;28;20036;-70
2022/04/30 07:59:54;;;;;;;5.97;4.77;;;11.20;99.90;;;;;;5036869;28;20025;-70
2022/04/30 08:02:19;;;;;;;6.65;4.78;;;11.30;99.90;;;;;;5040117;28;20478;-70
2022/04/30 08:04:45;;;;;;;7.00;5.20;;;11.40;99.90;;;;;;5040576;28;20041;-70
2022/04/30 08:07:11;;;;;;;6.53;5.35;;;11.60;99.90;;;;;;5038449;28;20125;-69
2022/04/30 08:09:37;;;;;;;8.30;4.90;;;11.50;99.90;;;;;;5041961;28;20110;-69
2022/04/30 08:12:03;;;;;;;8.07;5.82;;;11.50;99.90;;;;;;5034915;28;20072;-69
2022/04/30 08:14:28;;;;;;;8.38;4.72;;;11.70;99.90;;;;;;5035692;28;20029;-70
2022/04/30 08:16:54;;;;;;;5.40;4.33;;;;;;;;;;5040528;28;20139;-69
2022/04/30 08:19:20;;;;;;;8.38;4.57;;;11.90;99.90;;;;;;5046004;28;20029;-70
2022/04/30 08:21:48;;;;;;;4.93;3.83;;;11.60;99.90;;;;;;5035983;28;20489;-69
2022/04/30 08:24:14;;;;;;;6.85;4.25;;;12.10;99.90;;;;;;5036371;28;20068;-69
2022/04/30 08:26:40;;;;;;;5.78;4.18;;;12.10;99.90;;;;;;5035627;28;20521;-69
2022/04/30 08:29:06;;;;;;;5.88;4.05;;;11.90;99.90;;;;;;5032970;28;20453;-69
2022/04/30 08:31:32;;;;;;;4.18;3.55;;;12.20;99.90;;;;;;5034051;28;20021;-69
2022/04/30 08:33:58;;;;;;;5.38;3.70;;;12.00;99.90;;;;;;5034354;28;20040;-70
2022/04/30 08:36:23;;;;;;;5.32;3.67;;;12.20;99.90;;;;;;5037405;28;20476;-69
2022/04/30 08:38:49;;;;;;;7.43;3.75;;;12.10;99.90;;;;;;5033178;28;20049;-69
2022/04/30 08:41:16;;;;;;;5.65;4.50;;;;;;;;;;5039771;28;20050;-70
2022/04/30 08:43:42;;;;;;;7.30;4.57;;;;;;;;;;5046235;28;20041;-70
2022/04/30 08:46:08;;;;;;;6.55;4.43;;;12.20;99.90;;;;;;5045024;28;20029;-69
2022/04/30 08:48:34;;;;;;;4.85;3.92;;;12.20;96.00;;;;;;5049959;28;20184;-70
2022/04/30 08:51:02;;;;;;;5.85;4.35;;;12.30;99.90;;;;;;5034785;28;20049;-69
2022/04/30 08:53:28;;;;;;;9.25;4.47;;;12.30;99.90;;;;;;5030745;28;20081;-69
2022/04/30 08:55:53;;;;;;;9.82;4.00;;;12.40;99.90;;;;;;5034202;28;20037;-69
2022/04/30 08:58:19;;;;;;;10.65;4.28;;;;;;;;;;5034492;28;20401;-69
2022/04/30 09:00:47;;;;;;;9.82;4.85;;;12.80;99.90;;;;;;5043078;28;20036;-70
2022/04/30 09:03:18;;;;;;;11.13;3.85;;;12.70;99.90;;;;;;5046492;28;20105;-70
2022/04/30 09:05:44;;;;;;;4.88;4.00;;;13.10;99.90;;;;;;5032276;28;20045;-70
2022/04/30 09:08:10;;;;;;;6.40;4.38;;;;;;;;;;5050095;28;20021;-70
2022/04/30 09:10:37;;;;;;;5.80;4.45;;;12.80;96.90;;;;;;5049170;28;20029;-70
2022/04/30 09:13:07;;;;;;;7.10;5.05;;;13.10;99.90;;;;;;5048822;28;20055;-70
2022/04/30 09:15:34;;;;;;;6.03;4.18;;;13.10;94.70;;;;;;5050077;28;20060;-70
2022/04/30 09:18:00;;;;;;;9.25;5.68;;;13.00;95.70;;;;;;5050372;28;20021;-70
2022/04/30 09:20:26;;;;;;;6.90;4.63;;;12.50;99.90;;;;;;5049453;28;20036;-69
2022/04/30 09:22:52;;;;;;;7.85;5.00;;;12.90;99.90;;;;;;5050177;28;20025;-70
2022/04/30 09:25:18;;;;;;;9.32;5.53;;;12.80;99.90;;;;;;5049638;28;20378;-70
2022/04/30 09:27:50;;;;;;;10.18;5.38;;;13.30;99.90;;;;;;5050011;28;20067;-70
2022/04/30 09:30:33;;;;;;;7.30;5.95;;;13.20;99.90;;;;;;5050232;28;20036;-70
2022/04/30 09:33:03;;;;;;;5.43;3.83;;;13.60;99.90;;;;;;5050355;28;20059;-70
2022/04/30 09:38:15;;;;;;;6.18;4.32;;;13.50;98.30;;;;;;5049760;28;20056;-70
2022/04/30 09:40:50;;;;;;;6.78;4.40;;;13.40;99.90;;;;;;5049113;28;20398;-69
2022/04/30 09:43:16;;;;;;;6.75;4.18;;;;;;;;;;5058280;28;20047;-69
2022/04/30 09:45:42;;;;;;;9.52;5.15;;;13.20;99.90;;;;;;5049685;28;20032;-71
2022/04/30 09:53:57;;;;;;;6.13;4.35;;;13.40;92.90;;;;;;5048875;28;20067;-70
2022/04/30 09:56:44;;;;;;;5.80;4.35;;;15.00;92.20;;;;;;5049168;28;20029;-70
2022/04/30 09:59:12;;;;;;;5.72;3.80;;;14.10;92.40;;;;;;5048867;28;20103;-69
2022/04/30 10:01:39;;;;;;;6.00;3.20;;;14.50;99.10;;;;;;5047548;28;20021;-70
2022/04/30 10:04:08;;;;;;;5.13;4.30;;;14.60;96.50;;;;;;5048694;28;20098;-70
2022/04/30 10:06:35;;;;;;;5.65;4.68;;;14.60;97.50;;;;;;5049576;28;20100;-70
2022/04/30 10:09:06;;;;;;;8.38;4.90;;;14.60;96.90;;;;;;5049581;28;20081;-70
2022/04/30 10:11:41;;;;;;;10.88;4.18;;;14.30;97.00;;;;;;5049505;28;20060;-70
2022/04/30 10:14:31;;;;;;;7.43;4.53;;;14.20;97.00;;;;;;5049435;28;20036;-70
2022/04/30 10:17:13;;;;;;;4.47;2.97;;;13.90;90.20;;;;;;5048753;28;20492;-69
2022/04/30 10:20:07;;;;;;;8.43;4.35;;;13.70;89.10;;;;;;5048170;28;20094;-69
2022/04/30 10:22:32;;;;;;;5.23;4.77;;;13.60;97.80;;;;;;5028638;28;20057;-69
2022/04/30 10:24:59;;;;;;;6.03;4.82;;;13.40;91.10;;;;;;5045412;28;20472;-71
2022/04/30 10:27:37;;;;;;;6.85;5.38;;;13.20;98.30;;;;;;5048300;28;20556;-69
2022/04/30 10:30:05;;;;;;;7.70;4.95;;;13.00;98.60;;;;;;5048545;28;20393;-70
2022/04/30 10:32:33;;;;;;;6.78;5.53;;;12.90;98.80;;;;;;5048933;28;20036;-70
2022/04/30 10:34:59;;;;;;;6.45;4.55;;;12.90;99.00;;;;;;5049204;28;20486;-70
2022/04/30 10:37:38;;;;;;;7.07;4.90;;;12.70;95.30;;;;;;5049211;28;20025;-71
2022/04/30 10:40:11;;;;;;;9.20;5.40;;;13.00;99.20;;;;;;5048581;28;20021;-69
2022/04/30 10:42:42;;;;;;;7.40;5.13;;;12.50;95.90;;;;;;5049476;28;20033;-70
2022/04/30 10:45:12;;;;;;;6.28;4.35;;;12.60;94.80;;;;;;5049563;28;20041;-70
2022/04/30 10:47:56;;;;;;;8.45;5.32;;;12.60;98.50;;;;;;5049523;28;20108;-70
2022/04/30 10:50:22;;;;;;;5.97;4.82;;;12.50;96.30;;;;;;5049218;28;20569;-70
2022/04/30 10:52:49;;;;;;;7.38;5.32;;;12.60;99.30;;;;;;5049707;28;20029;-70
2022/04/30 10:55:16;;;;;;;5.70;4.63;;;12.50;93.30;;;;;;5048695;28;20140;-70
2022/04/30 10:57:43;;;;;;;9.50;4.53;;;12.60;92.30;;;;;;5064423;28;20398;-70
2022/04/30 11:00:09;;;;;;;4.38;3.70;;;12.50;99.20;;;;;;5049275;28;20025;-70
2022/04/30 11:02:35;;;;;;;7.47;4.75;;;13.00;98.90;;;;;;5049040;28;20099;-70
2022/04/30 11:05:01;;;;;;;8.63;5.25;;;12.80;98.80;;;;;;5049182;28;20171;-70
2022/04/30 11:07:28;;;;;;;6.15;3.30;;;12.80;97.10;;;;;;5048958;28;20033;-70
2022/04/30 11:09:54;;;;;;;8.02;4.25;;;12.50;98.30;;;;;;5051672;28;20021;-69
2022/04/30 11:12:20;;;;;;;5.78;4.15;;;;;;;;;;5052851;28;20033;-70
2022/04/30 11:14:47;;;;;;;4.78;4.28;;;12.90;98.10;;;;;;5053011;28;20036;-71
2022/04/30 11:17:13;;;;;;;6.50;4.38;;;;;;;;;;5052115;28;20029;-71
2022/04/30 11:19:42;;;;;;;8.30;4.20;;;12.90;97.90;;;;;;5052607;28;20051;-71
2022/04/30 11:22:09;;;;;;;5.50;4.03;;;13.10;92.60;;;;;;5052320;28;20053;-70
2022/04/30 11:24:37;;;;;;;5.20;3.97;;;13.50;90.90;;;;;;5052204;28;20052;-70
2022/04/30 11:27:05;;;;;;;4.22;3.50;;;13.40;97.60;;;;;;5052331;28;20027;-70
2022/04/30 11:29:32;;;;;;;9.55;4.78;;;15.90;91.20;;;;;;5052760;28;20210;-70
2022/04/30 11:31:59;;;;;;;4.93;3.90;;;13.70;97.80;;;;;;5052183;28;20033;-70
2022/04/30 11:34:25;;;;;;;5.88;3.78;;;13.70;97.70;;;;;;5052431;28;20091;-70
2022/04/30 11:36:52;;;;;;;6.90;4.68;;;13.70;97.50;;;;;;5052636;28;20033;-70
2022/04/30 11:39:20;;;;;;;4.68;4.28;;;13.80;94.70;;;;;;5050315;28;20487;-70
2022/04/30 11:41:50;;;;;;;6.70;5.88;;;14.10;97.50;;;;;;5052243;28;20056;-70
2022/04/30 11:44:18;;;;;;;7.32;5.47;;;14.20;97.50;;;;;;5052190;28;20104;-70
2022/04/30 11:46:46;;;;;;;6.90;4.70;;;14.50;97.40;;;;;;5052459;28;20044;-70
2022/04/30 11:49:23;;;;;;;5.47;4.35;;;14.50;97.00;;;;;;5052393;28;20032;-70
2022/04/30 11:51:51;;;;;;;9.35;4.82;;;14.80;96.60;;;;;;5052638;28;20373;-71
2022/04/30 11:54:19;;;;;;;4.35;3.95;;;14.80;96.40;;;;;;5051460;28;20039;-69
2022/04/30 11:56:46;;;;;;;6.43;4.47;;;14.60;96.40;;;;;;5052061;28;20478;-69
2022/04/30 11:59:12;;;;;;;6.93;4.10;;;14.70;96.40;;;;;;5052298;28;20037;-71
2022/04/30 12:01:44;;;;;;;5.70;4.35;;;14.90;96.30;;;;;;5051971;28;20486;-70
2022/04/30 12:04:14;;;;;;;6.78;3.88;;;14.90;96.10;;;;;;5050635;28;20044;-70
2022/04/30 12:06:43;;;;;;;7.03;3.50;;;15.10;95.90;;;;;;5050704;28;20412;-69
2022/04/30 12:09:16;;;;;;;5.40;3.47;;;14.80;95.60;;;;;;5051785;28;20518;-70
2022/04/30 12:11:44;;;;;;;9.00;4.65;;;14.70;95.70;;;;;;5051930;28;20112;-70
2022/04/30 12:14:11;;;;;;;7.00;3.75;;;14.70;95.70;;;;;;5051590;28;20032;-70
2022/04/30 12:16:39;;;;;;;5.60;3.45;;;14.70;96.00;;;;;;5052638;28;20029;-70
2022/04/30 12:24:43;;;;;;;5.47;3.50;;;14.70;95.20;;;;;;5049352;28;20084;-70
2022/04/30 12:27:10;;;;;;;5.40;3.75;;;14.50;95.10;;;;;;5049032;28;20044;-70
2022/04/30 12:29:37;;;;;;;5.28;3.50;;;14.50;95.20;;;;;;5049204;28;20037;-70
2022/04/30 12:32:07;;;;;;;3.90;3.13;;;14.50;84.20;;;;;;5049207;28;20219;-70
2022/04/30 12:34:41;;;;;;;5.13;4.13;;;14.50;94.90;;;;;;5048217;28;20028;-70
2022/04/30 12:37:08;;;;;;;5.07;3.25;;;14.80;94.90;;;;;;5030555;28;20033;-71
2022/04/30 12:39:35;;;;;;;6.68;4.00;;;14.70;94.90;;;;;;5030123;28;20041;-70
2022/04/30 12:42:01;;;;;;;4.75;3.80;;;14.50;94.90;;;;;;5028917;28;20046;-70
2022/04/30 12:44:27;;;;;;;6.30;4.93;;;14.30;94.80;;;;;;5028643;28;20046;-70
2022/04/30 12:46:53;;;;;;;4.30;3.70;;;14.20;95.10;;;;;;5029350;28;20032;-70
2022/04/30 12:49:19;;;;;;;4.13;3.72;;;14.10;95.20;;;;;;5028841;28;20041;-70
2022/04/30 12:51:48;;;;;;;4.72;3.40;;;14.00;95.50;;;;;;5028749;28;20028;-70
2022/04/30 12:54:14;;;;;;;5.95;3.05;;;13.80;95.40;;;;;;5044142;28;20029;-69
2022/04/30 12:56:40;;;;;;;4.88;3.05;;;13.80;95.50;;;;;;5048983;28;20405;-70
2022/04/30 12:59:07;;;;;;;6.47;3.63;;;13.90;95.40;;;;;;5048512;28;20041;-69
2022/04/30 13:01:34;;;;;;;7.15;3.67;;;;;;;;;;5049708;28;20124;-69
2022/04/30 13:04:00;;;;;;;4.90;3.25;;;13.80;95.10;;;;;;5050730;28;20037;-69
2022/04/30 13:06:26;;;;;;;6.70;3.50;;;13.70;95.10;;;;;;5050321;28;20033;-69
2022/04/30 13:14:19;;;;;;;4.05;3.63;;;13.60;95.30;;;;;;5050364;28;20039;-69
2022/04/30 13:16:45;;;;;;;3.67;2.47;;;13.90;95.20;;;;;;5050713;28;20025;-69
2022/04/30 13:19:11;;;;;;;3.85;2.85;;;13.80;86.90;;;;;;5049696;28;20378;-69
2022/04/30 13:21:37;;;;;;;4.28;2.38;;;13.90;94.80;;;;;;5050603;28;20102;-69
2022/04/30 13:24:03;;;;;;;6.05;2.90;;;14.20;94.60;;;;;;5048591;28;20037;-69
2022/04/30 13:26:29;;;;;;;6.15;2.70;;;14.10;94.50;;;;;;5050239;28;20041;-69
2022/04/30 13:28:54;;;;;;;4.97;3.13;;;14.20;94.50;;;;;;5050731;28;20036;-69
2022/04/30 13:31:20;;;;;;;4.22;3.22;;;14.40;94.30;;;;;;5049675;28;20417;-69
2022/04/30 13:33:46;;;;;;;4.78;2.63;;;;;;;;;;5049628;28;20025;-69
2022/04/30 13:36:12;;;;;;;5.78;2.60;;;14.70;94.30;;;;;;5050101;28;20431;-69
2022/04/30 13:38:38;;;;;;;3.58;2.70;;;14.80;82.90;;;;;;5050154;28;20060;-69
2022/04/30 13:41:06;;;;;;;4.95;3.33;;;14.60;93.90;;;;;;5050076;28;20088;-69
2022/04/30 13:43:31;;;;;;;5.55;3.10;;;15.10;93.70;;;;;;5049814;28;20094;-69
2022/04/30 13:45:58;;;;;;;4.57;3.58;;;15.10;93.60;;;;;;5049834;28;20028;-69
2022/04/30 13:48:23;;;;;;;4.07;2.92;;;15.10;93.60;;;;;;5048506;28;20040;-69
2022/04/30 13:50:51;;;;;;;6.30;2.80;;;15.30;93.80;;;;;;5050111;28;20024;-69
2022/04/30 13:53:17;;;;;;;4.60;2.45;;;15.20;93.50;;;;;;5050353;28;20031;-69
2022/04/30 13:55:43;;;;;;;2.28;2.00;;;15.30;81.60;;;;;;5049824;28;20416;-69